createdAt,value
2023-05-24T00:00:16.231Z,6.47
2023-05-24T00:02:49.300Z,8.27
2023-05-24T00:05:22.224Z,6.43
2023-05-24T00:07:55.547Z,9.30
2023-05-24T00:10:28.515Z,10.07
2023-05-24T00:13:02.695Z,8.52
2023-05-24T00:15:36.868Z,9.45
2023-05-24T00:18:09.727Z,5.38
2023-05-24T00:20:42.915Z,8.13
2023-05-24T00:23:16.093Z,9.80
2023-05-24T00:25:48.986Z,10.52
2023-05-24T00:28:23.533Z,10.18
2023-05-24T00:30:58.350Z,7.05
2023-05-24T00:33:31.248Z,9.57
2023-05-24T00:36:04.152Z,11.32
2023-05-24T00:38:36.999Z,11.20
2023-05-24T00:41:11.441Z,10.32
2023-05-24T00:43:46.152Z,10.48
2023-05-24T00:46:22.211Z,9.82
2023-05-24T00:48:55.643Z,8.52
2023-05-24T00:51:30.195Z,5.80
2023-05-24T00:54:03.584Z,4.20
2023-05-24T00:56:36.632Z,7.45
2023-05-24T00:59:11.290Z,9.85
2023-05-24T01:01:47.016Z,7.40
2023-05-24T01:04:22.903Z,10.25
2023-05-24T01:07:10.806Z,10.70
2023-05-24T01:09:59.918Z,6.90
2023-05-24T01:12:43.708Z,8.23
2023-05-24T01:15:24.975Z,9.30
2023-05-24T01:18:05.775Z,8.70
2023-05-24T01:20:41.684Z,12.48
2023-05-24T01:23:39.267Z,9.93
2023-05-24T01:26:21.323Z,9.32
2023-05-24T01:28:56.267Z,5.43
2023-05-24T01:31:30.424Z,8.63
2023-05-24T01:34:03.356Z,11.13
2023-05-24T01:36:36.240Z,14.20
2023-05-24T01:39:09.866Z,13.25
2023-05-24T01:41:50.049Z,10.90
2023-05-24T01:44:30.343Z,7.00
2023-05-24T01:47:12.677Z,11.30
2023-05-24T01:49:51.393Z,10.18
2023-05-24T01:52:29.901Z,9.68
2023-05-24T01:55:06.025Z,10.20
2023-05-24T01:57:41.278Z,5.95
2023-05-24T02:00:19.055Z,8.25
2023-05-24T02:02:52.964Z,7.22
2023-05-24T02:05:26.124Z,11.17
2023-05-24T02:07:58.996Z,8.25
2023-05-24T02:10:31.983Z,12.13
2023-05-24T02:13:04.929Z,12.10
2023-05-24T02:15:41.731Z,6.68
2023-05-24T02:18:18.754Z,12.07
2023-05-24T02:20:52.311Z,9.98
2023-05-24T02:23:25.175Z,5.40
2023-05-24T02:25:58.393Z,9.13
2023-05-24T02:28:32.572Z,5.72
2023-05-24T02:31:07.187Z,11.23
2023-05-24T02:33:40.475Z,7.53
2023-05-24T02:36:13.377Z,7.72
2023-05-24T02:38:46.583Z,10.40
2023-05-24T02:41:19.637Z,7.43
2023-05-24T02:43:52.540Z,8.68
2023-05-24T02:46:26.891Z,8.30
2023-05-24T02:49:00.017Z,9.55
2023-05-24T02:51:33.432Z,12.00
2023-05-24T02:54:06.549Z,7.88
2023-05-24T02:56:40.417Z,7.60
2023-05-24T02:59:13.220Z,8.75
2023-05-24T03:01:48.085Z,10.40
2023-05-24T03:04:23.033Z,6.22
2023-05-24T03:06:56.235Z,7.47
2023-05-24T03:09:29.323Z,9.10
2023-05-24T03:12:02.142Z,9.75
2023-05-24T03:14:36.607Z,8.00
2023-05-24T03:17:11.001Z,12.73
2023-05-24T03:19:43.852Z,10.13
2023-05-24T03:22:16.675Z,9.45
2023-05-24T03:24:49.929Z,13.88
2023-05-24T03:27:23.414Z,10.98
2023-05-24T03:29:56.375Z,7.68
2023-05-24T03:32:34.648Z,11.13
2023-05-24T03:35:08.163Z,8.32
2023-05-24T03:37:41.665Z,13.90
2023-05-24T03:40:14.616Z,8.10
2023-05-24T03:43:04.452Z,9.00
2023-05-24T03:45:57.970Z,9.57
2023-05-24T03:48:32.264Z,8.07
2023-05-24T03:51:05.281Z,9.75
2023-05-24T03:53:40.641Z,8.55
2023-05-24T03:56:13.499Z,7.60
2023-05-24T03:58:46.680Z,6.40
2023-05-24T04:01:32.534Z,9.88
2023-05-24T04:04:07.794Z,9.77
2023-05-24T04:06:42.291Z,10.88
2023-05-24T04:09:15.569Z,6.72
2023-05-24T04:11:48.450Z,8.23
2023-05-24T04:14:21.784Z,7.43
2023-05-24T04:16:55.114Z,8.63
2023-05-24T04:19:29.539Z,10.68
2023-05-24T04:22:02.793Z,11.20
2023-05-24T04:24:36.362Z,7.88
2023-05-24T04:27:10.488Z,8.15
2023-05-24T04:29:49.502Z,11.23
2023-05-24T04:32:23.468Z,10.90
2023-05-24T04:34:57.673Z,8.60
2023-05-24T04:37:31.738Z,9.02
2023-05-24T04:40:05.569Z,13.52
2023-05-24T04:42:38.472Z,7.43
2023-05-24T04:45:12.052Z,15.82
2023-05-24T04:47:44.905Z,7.72
2023-05-24T04:50:19.310Z,9.13
2023-05-24T04:52:52.360Z,12.30
2023-05-24T04:55:25.195Z,10.27
2023-05-24T04:57:58.281Z,12.52
2023-05-24T05:00:31.433Z,10.63
2023-05-24T05:03:05.043Z,11.32
2023-05-24T05:05:39.631Z,8.93
2023-05-24T05:08:12.494Z,9.43
2023-05-24T05:10:46.345Z,10.95
2023-05-24T05:13:19.163Z,13.38
2023-05-24T05:15:52.521Z,11.30
2023-05-24T05:18:26.466Z,10.05
2023-05-24T05:21:01.226Z,9.77
2023-05-24T05:23:34.075Z,11.45
2023-05-24T05:26:07.325Z,10.68
2023-05-24T05:28:40.386Z,12.45
2023-05-24T05:31:13.233Z,14.52
2023-05-24T05:33:46.280Z,12.23
2023-05-24T05:36:20.626Z,9.43
2023-05-24T05:38:54.557Z,13.77
2023-05-24T05:41:27.677Z,13.67
2023-05-24T05:44:00.558Z,13.60
2023-05-24T05:46:33.513Z,11.02
2023-05-24T05:49:07.264Z,10.57
2023-05-24T05:51:41.390Z,10.65
2023-05-24T05:54:18.347Z,11.82
2023-05-24T05:56:52.157Z,14.88
2023-05-24T05:59:27.731Z,10.77
2023-05-24T06:02:00.602Z,13.07
2023-05-24T06:04:33.470Z,11.05
2023-05-24T06:07:08.013Z,12.68
2023-05-24T06:09:40.830Z,8.95
2023-05-24T06:12:13.628Z,11.52
2023-05-24T06:14:48.210Z,8.52
2023-05-24T06:17:24.214Z,13.95
2023-05-24T06:19:57.340Z,11.90
2023-05-24T06:22:31.532Z,13.05
2023-05-24T06:25:05.202Z,19.40
2023-05-24T06:27:38.066Z,15.27
2023-05-24T06:30:11.681Z,15.10
2023-05-24T06:32:44.888Z,14.38
2023-05-24T06:35:17.857Z,16.02
2023-05-24T06:37:52.032Z,15.38
2023-05-24T06:40:24.948Z,14.27
2023-05-24T06:42:58.612Z,15.93
2023-05-24T06:45:31.505Z,11.50
2023-05-24T06:48:05.461Z,12.55
2023-05-24T06:50:40.235Z,18.95
2023-05-24T06:53:16.119Z,18.88
2023-05-24T06:55:48.927Z,12.75
2023-05-24T06:58:22.000Z,16.05
2023-05-24T07:00:54.911Z,15.25
2023-05-24T07:03:27.790Z,15.75
2023-05-24T07:06:00.885Z,12.77
2023-05-24T07:08:35.160Z,16.77
2023-05-24T07:11:08.214Z,18.15
2023-05-24T07:13:41.369Z,15.88
2023-05-24T07:16:14.448Z,15.55
2023-05-24T07:18:47.318Z,13.98
2023-05-24T07:31:08.387Z,13.25
2023-05-24T07:33:43.013Z,16.45
2023-05-24T07:36:16.827Z,14.27
2023-05-24T07:38:50.355Z,18.80
2023-05-24T07:41:27.715Z,18.80
2023-05-24T07:44:01.440Z,14.48
2023-05-24T07:46:37.186Z,11.18
2023-05-24T07:49:12.366Z,13.52
2023-05-24T07:51:49.563Z,15.88
2023-05-24T07:54:24.312Z,13.18
2023-05-24T07:56:58.759Z,15.88
2023-05-24T07:59:33.040Z,13.85
2023-05-24T08:02:11.583Z,14.95
2023-05-24T08:04:46.557Z,15.10
2023-05-24T08:07:21.581Z,9.70
2023-05-24T08:09:55.997Z,13.25
2023-05-24T08:12:31.080Z,12.20
2023-05-24T08:15:06.292Z,14.45
2023-05-24T08:17:41.554Z,12.82
2023-05-24T08:20:17.137Z,13.75
2023-05-24T08:22:51.016Z,12.35
2023-05-24T08:25:26.506Z,11.48
2023-05-24T08:28:00.585Z,19.02
2023-05-24T08:30:35.570Z,16.77
2023-05-24T08:33:11.369Z,12.23
2023-05-24T08:35:45.934Z,12.00
2023-05-24T08:38:19.606Z,17.48
2023-05-24T08:40:53.573Z,15.90
2023-05-24T08:43:32.580Z,17.48
2023-05-24T08:46:07.080Z,16.67
2023-05-24T08:48:47.930Z,16.83
2023-05-24T08:51:23.054Z,11.25
2023-05-24T08:53:58.168Z,13.82
2023-05-24T08:59:06.036Z,10.48
2023-05-24T09:01:42.181Z,11.38
2023-05-24T09:04:17.477Z,8.57
2023-05-24T09:06:54.975Z,9.88
2023-05-24T09:09:31.494Z,11.00
2023-05-24T09:12:09.102Z,12.55
2023-05-24T09:14:46.556Z,11.60
2023-05-24T09:17:23.766Z,13.35
2023-05-24T09:20:00.480Z,9.85
2023-05-24T09:22:40.845Z,8.60
2023-05-24T09:25:16.495Z,11.60
2023-05-24T09:27:54.623Z,13.82
2023-05-24T09:30:29.244Z,11.98
2023-05-24T09:33:05.535Z,14.35
2023-05-24T09:35:43.957Z,12.63
2023-05-24T09:38:19.180Z,13.70
2023-05-24T09:41:00.533Z,11.27
2023-05-24T09:43:36.217Z,9.80
2023-05-24T09:46:11.114Z,13.68
2023-05-24T09:48:59.300Z,14.02
2023-05-24T09:51:39.486Z,11.05
2023-05-24T09:54:15.233Z,9.57
2023-05-24T09:56:49.320Z,11.43
2023-05-24T09:59:26.398Z,10.63
2023-05-24T10:02:10.975Z,15.02
2023-05-24T10:04:45.306Z,14.25
2023-05-24T10:07:20.448Z,9.88
2023-05-24T10:10:00.221Z,10.23
2023-05-24T10:12:36.410Z,8.25
2023-05-24T10:15:12.710Z,10.27
2023-05-24T10:17:47.130Z,10.68
2023-05-24T10:20:20.217Z,9.77
2023-05-24T10:23:00.161Z,12.60
2023-05-24T10:25:35.853Z,7.28
2023-05-24T10:28:13.460Z,8.85
2023-05-24T10:31:00.316Z,8.80
2023-05-24T10:33:37.260Z,9.95
2023-05-24T10:36:12.902Z,7.65
2023-05-24T10:38:48.882Z,9.18
2023-05-24T10:41:22.259Z,9.02
2023-05-24T10:50:04.620Z,11.73
2023-05-24T10:52:37.967Z,10.65
2023-05-24T10:55:13.159Z,12.43
2023-05-24T11:03:10.383Z,13.10
2023-05-24T11:05:55.359Z,9.85
2023-05-24T11:08:33.085Z,14.25
2023-05-24T11:11:23.907Z,8.82
2023-05-24T11:13:58.840Z,9.70
2023-05-24T11:16:36.969Z,11.68
2023-05-24T11:19:14.260Z,12.07
2023-05-24T11:21:48.709Z,9.85
2023-05-24T11:24:23.403Z,9.65
2023-05-24T11:29:31.417Z,12.15
2023-05-24T11:32:05.412Z,11.30
2023-05-24T11:34:39.883Z,9.88
2023-05-24T11:37:15.247Z,13.20
2023-05-24T11:39:52.845Z,11.68
2023-05-24T11:42:29.600Z,10.70
2023-05-24T11:45:02.464Z,12.10
2023-05-24T11:47:36.826Z,15.98
2023-05-24T11:50:10.585Z,10.52
2023-05-24T11:52:44.146Z,10.67
2023-05-24T11:55:25.579Z,8.32
2023-05-24T15:00:06.329Z,10.10
2023-05-24T15:02:39.544Z,9.02
2023-05-24T15:05:12.575Z,8.77
2023-05-24T15:07:45.602Z,7.90
2023-05-24T15:10:18.600Z,8.30
2023-05-24T15:12:51.970Z,9.32
2023-05-24T15:15:26.405Z,5.95
2023-05-24T15:20:35.800Z,6.90
2023-05-24T15:23:31.036Z,8.75
2023-05-24T15:26:04.043Z,10.00
2023-05-24T15:28:36.913Z,7.82
2023-05-24T15:31:11.463Z,6.95
2023-05-24T15:33:44.444Z,6.05
2023-05-24T15:36:17.574Z,7.68
2023-05-24T15:38:50.428Z,9.65
2023-05-24T15:41:23.885Z,7.57
2023-05-24T15:43:58.175Z,9.52
2023-05-24T15:46:32.872Z,6.57
2023-05-24T15:49:06.095Z,11.40
2023-05-24T15:54:15.166Z,7.60
2023-05-24T15:56:49.597Z,8.15
2023-05-24T16:01:56.868Z,8.25
2023-05-24T16:04:30.763Z,6.90
2023-05-24T16:07:03.749Z,7.45
2023-05-24T16:09:36.768Z,10.18
2023-05-24T16:12:10.184Z,6.82
2023-05-24T16:14:43.087Z,7.37
2023-05-24T16:17:17.511Z,7.32
2023-05-24T16:19:50.443Z,4.57
2023-05-24T16:22:23.834Z,6.20
2023-05-24T16:24:56.874Z,6.90
2023-05-24T16:27:29.836Z,7.10
2023-05-24T16:30:03.345Z,7.10
2023-05-24T16:32:39.380Z,7.38
2023-05-24T16:35:12.472Z,7.10
2023-05-24T16:37:45.453Z,8.68
2023-05-24T16:40:18.366Z,7.53
2023-05-24T16:42:53.574Z,5.20
2023-05-24T16:45:26.459Z,8.52
2023-05-24T16:48:01.177Z,7.68
2023-05-24T16:50:35.734Z,6.60
2023-05-24T16:53:08.815Z,7.63
2023-05-24T16:55:41.650Z,7.38
2023-05-24T16:58:14.544Z,7.93
2023-05-24T17:00:47.911Z,7.13
2023-05-24T17:03:27.561Z,7.00
2023-05-24T17:06:03.873Z,6.03
2023-05-24T17:08:37.672Z,3.75
2023-05-24T17:11:12.107Z,8.70
2023-05-24T17:13:45.698Z,6.78
2023-05-24T17:16:18.923Z,5.30
2023-05-24T17:18:53.689Z,5.38
2023-05-24T17:21:27.839Z,7.65
2023-05-24T17:24:01.416Z,4.22
2023-05-24T17:26:34.559Z,7.40
2023-05-24T17:29:07.952Z,6.77
2023-05-24T17:31:41.661Z,8.30
2023-05-24T17:34:17.507Z,5.07
2023-05-24T17:36:50.400Z,6.10
2023-05-24T17:42:30.457Z,10.20
2023-05-24T17:45:03.546Z,7.80
2023-05-24T17:48:02.472Z,6.93
2023-05-24T17:50:36.722Z,5.57
2023-05-24T17:53:35.465Z,6.68
2023-05-24T17:56:41.102Z,5.47
2023-05-24T18:01:47.835Z,6.10
2023-05-24T18:04:43.610Z,7.65
2023-05-24T18:07:18.894Z,7.40
2023-05-24T18:09:52.102Z,7.32
2023-05-24T18:12:25.567Z,4.95
2023-05-24T18:15:30.728Z,7.73
2023-05-24T18:21:12.938Z,6.45
2023-05-24T18:23:47.270Z,7.00
2023-05-24T18:26:20.290Z,7.45
2023-05-24T18:28:53.439Z,5.80
2023-05-24T18:31:28.796Z,5.53
2023-05-24T18:34:02.552Z,6.30
2023-05-24T18:36:36.589Z,7.07
2023-05-24T18:39:36.009Z,7.77
2023-05-24T18:42:29.168Z,6.05
2023-05-24T18:45:02.299Z,4.95
2023-05-24T18:47:35.471Z,6.05
2023-05-24T18:50:09.823Z,6.10
2023-05-24T18:52:42.684Z,5.57
2023-05-24T18:55:17.491Z,6.90
2023-05-24T18:57:50.441Z,7.45
2023-05-24T19:00:24.425Z,5.95
2023-05-24T19:02:57.423Z,8.80
2023-05-24T19:05:30.748Z,6.30
2023-05-24T19:08:03.670Z,5.95
2023-05-24T19:10:38.048Z,7.20
2023-05-24T19:13:10.864Z,7.35
2023-05-24T19:15:44.683Z,8.13
2023-05-24T19:18:17.733Z,8.75
2023-05-24T19:20:50.910Z,5.63
2023-05-24T19:23:24.240Z,8.88
2023-05-24T19:25:58.622Z,7.90
2023-05-24T19:28:32.023Z,5.68
2023-05-24T19:31:05.453Z,6.45
2023-05-24T19:33:48.489Z,4.38
2023-05-24T19:36:32.797Z,4.72
2023-05-24T19:41:39.913Z,4.20
2023-05-24T19:44:12.814Z,4.85
2023-05-24T19:46:46.157Z,5.53
2023-05-24T19:49:19.687Z,7.10
2023-05-24T19:51:52.915Z,11.63
2023-05-24T19:54:25.995Z,8.15
2023-05-24T19:57:01.878Z,9.25
2023-05-24T19:59:35.440Z,5.28
2023-05-24T20:02:08.412Z,10.63
2023-05-24T20:04:43.695Z,5.07
2023-05-24T20:07:16.627Z,8.15
2023-05-24T20:09:49.843Z,5.85
2023-05-24T20:12:24.093Z,6.93
2023-05-24T20:14:56.973Z,6.70
2023-05-24T20:17:29.915Z,7.15
2023-05-24T20:20:03.606Z,5.95
2023-05-24T20:22:36.653Z,6.70
2023-05-24T20:25:09.621Z,6.53
2023-05-24T20:27:44.899Z,6.43
2023-05-24T20:30:18.817Z,11.55
2023-05-24T20:32:51.768Z,7.50
2023-05-24T20:35:24.705Z,5.25
2023-05-24T20:37:57.565Z,7.68
2023-05-24T20:40:30.598Z,9.73
2023-05-24T20:43:04.870Z,8.00
2023-05-24T20:45:37.921Z,8.23
2023-05-24T20:48:10.894Z,9.10
2023-05-24T20:50:44.287Z,5.38
2023-05-24T20:53:17.431Z,6.25
2023-05-24T20:55:50.336Z,9.30
2023-05-24T20:58:24.614Z,5.95
2023-05-24T21:00:57.652Z,4.95
2023-05-24T21:03:30.513Z,5.43
2023-05-24T21:06:03.481Z,6.60
2023-05-24T21:08:36.357Z,8.20
2023-05-24T21:11:09.250Z,7.00
2023-05-24T21:13:43.489Z,8.52
2023-05-24T21:16:16.373Z,6.40
2023-05-24T21:22:04.327Z,6.50
2023-05-24T21:24:37.323Z,10.57
2023-05-24T21:27:10.970Z,7.40
2023-05-24T21:29:45.213Z,9.43
2023-05-24T21:32:18.111Z,7.57
2023-05-24T21:34:51.011Z,6.93
2023-05-24T21:37:23.926Z,8.60
2023-05-24T21:39:56.850Z,9.70
2023-05-24T21:42:29.729Z,6.88
2023-05-24T21:45:04.606Z,6.00
2023-05-24T21:47:37.803Z,8.55
2023-05-24T21:50:11.312Z,7.75
2023-05-24T21:52:44.227Z,8.02
2023-05-24T21:55:17.762Z,6.40
2023-05-24T21:57:52.092Z,10.20
2023-05-24T22:00:26.890Z,9.43
2023-05-24T22:05:32.680Z,6.82
2023-05-24T22:08:05.631Z,8.70
2023-05-24T22:10:41.155Z,5.80
2023-05-24T22:13:14.109Z,6.15
2023-05-24T22:15:48.376Z,8.70
2023-05-24T22:18:21.920Z,9.43
2023-05-24T22:20:58.149Z,5.10
2023-05-24T22:23:31.104Z,6.82
2023-05-24T22:26:03.973Z,8.60
2023-05-24T22:28:53.422Z,5.63
2023-05-24T22:31:28.911Z,9.73
2023-05-24T22:34:02.422Z,10.20
2023-05-24T22:36:37.797Z,9.50
2023-05-24T22:39:10.913Z,7.30
2023-05-24T22:41:43.773Z,6.65
2023-05-24T22:44:16.683Z,7.97
2023-05-24T22:46:53.543Z,6.95
2023-05-24T22:49:29.356Z,5.47
2023-05-24T22:52:02.338Z,6.82
2023-05-24T22:54:35.249Z,7.22
2023-05-24T22:57:08.123Z,8.57
2023-05-24T22:59:42.597Z,7.20
2023-05-24T23:02:17.030Z,8.52
2023-05-24T23:04:49.917Z,6.40
2023-05-24T23:07:22.936Z,9.93
2023-05-24T23:09:55.998Z,8.13
2023-05-24T23:12:29.098Z,6.57
2023-05-24T23:15:01.947Z,5.80
2023-05-24T23:17:36.656Z,7.45
2023-05-24T23:20:10.843Z,8.27
2023-05-24T23:22:43.943Z,6.57
2023-05-24T23:25:16.913Z,6.60
2023-05-24T23:27:49.830Z,9.50
2023-05-24T23:30:22.683Z,7.00
2023-05-24T23:32:57.715Z,8.45
2023-05-24T23:38:05.800Z,5.32
2023-05-24T23:40:38.657Z,6.82
2023-05-24T23:43:11.753Z,7.00
2023-05-24T23:45:44.904Z,7.43
2023-05-24T23:48:21.086Z,5.25
2023-05-24T23:50:54.873Z,6.25
2023-05-24T23:53:27.840Z,7.37
2023-05-24T23:56:00.658Z,5.03
2023-05-24T23:58:33.883Z,7.82
